首页
METAR-TAF:

METAR-TAF

机场 :

萨尔茨堡沃尔夫冈·阿马多伊斯·莫扎特机场

萨尔茨堡, 奥地利

纬度: 47-48N, 经度: 013-00E, 海拔: 430米

当前天气观测

该预报发布于34分钟前的00:20 UTC
风速5节,风向南转南东
温度 7°C
湿度 93%
气压 1034 hPa
能见度10公里或以上
多云层高于6000英尺

METAR: LOWS 270020Z AUTO 16005KT 9999 BKN060 07/06 Q1034

时间: 02:54 (00:54 UTC)

预报

该预报发布于1小时和39分钟前的23:15 UTC
预报有效从27日的 00点(UTC)到 27日的 24点(UTC)
风速6节,风向南转南东
能见度10公里或以上
少量云层高于5000英尺
散云层高于7000英尺
成为
从 27日的 08点(UTC)到 27日的 10点(UTC)
风速6节,风向北转西北
成为
从 27日的 15点(UTC)到 27日的 17点(UTC)
风速5节,风向南转南东
能见度10公里或以上
1500米以下无云,无积雨云

TAF: LOWS 262315Z 2700/2724 15006KT 9999 FEW050 SCT070 TX19/2715Z TN07/2703Z BECMG 2708/2710 34006KT BECMG 2715/2717 15005KT CAVOK

超过4000个机场的气象观测和天气预报(METAR&TAF报告)。

可查询的气象台以黄色和红色小点在地图上表示。

将鼠标移到小点上方,可查看气象台名称。

然后点击查看天气观测和预报。

如需切换地图:点击带黑十字的绿色按钮放大地图;点击带横线的绿色按钮缩小地图;或者点击绿色箭头查看邻近地区的地图。


METAR-TAF: